createdAt,value
2019-04-18T00:00:25.695Z,4.40
2019-04-18T00:01:23.351Z,4.60
2019-04-18T00:02:23.350Z,4.70
2019-04-18T00:03:23.338Z,4.70
2019-04-18T00:04:23.334Z,4.50
2019-04-18T00:05:23.325Z,4.50
2019-04-18T00:06:23.321Z,4.60
2019-04-18T00:07:23.314Z,4.60
2019-04-18T00:08:23.309Z,4.80
2019-04-18T00:09:23.299Z,4.50
2019-04-18T00:10:23.295Z,4.40
2019-04-18T00:11:23.287Z,4.50
2019-04-18T00:12:23.465Z,5.00
2019-04-18T00:13:28.331Z,4.60
2019-04-18T00:14:35.991Z,4.40
2019-04-18T00:15:38.015Z,4.60
2019-04-18T00:16:24.611Z,4.50
2019-04-18T00:17:23.251Z,4.60
2019-04-18T00:18:23.248Z,4.40
2019-04-18T00:19:23.235Z,4.70
2019-04-18T00:20:23.228Z,4.70
2019-04-18T00:21:23.221Z,5.00
2019-04-18T00:22:24.278Z,4.80
2019-04-18T00:23:25.939Z,5.00
2019-04-18T00:24:23.202Z,4.40
2019-04-18T00:25:23.193Z,4.50
2019-04-18T00:26:23.187Z,4.80
2019-04-18T00:27:23.179Z,4.90
2019-04-18T00:28:23.172Z,4.80
2019-04-18T00:29:26.368Z,4.90
2019-04-18T00:30:23.162Z,4.70
2019-04-18T00:31:23.151Z,4.60
2019-04-18T00:32:23.149Z,4.80
2019-04-18T00:33:23.137Z,4.40
2019-04-18T00:34:23.137Z,4.90
2019-04-18T00:35:23.126Z,4.50
2019-04-18T00:36:23.119Z,4.80
2019-04-18T00:37:24.155Z,4.90
2019-04-18T00:38:23.106Z,4.80
2019-04-18T00:39:23.098Z,4.90
2019-04-18T00:40:23.092Z,4.90
2019-04-18T00:41:23.085Z,4.70
2019-04-18T00:42:23.148Z,4.70
2019-04-18T00:43:23.949Z,5.30
2019-04-18T00:44:23.064Z,4.90
2019-04-18T00:45:23.055Z,4.80
2019-04-18T00:46:23.050Z,4.90
2019-04-18T00:47:23.045Z,4.40
2019-04-18T00:48:25.761Z,4.70
2019-04-18T00:49:23.030Z,4.50
2019-04-18T00:50:23.021Z,4.70
2019-04-18T00:51:23.014Z,4.90
2019-04-18T00:52:23.007Z,5.00
2019-04-18T00:53:23.002Z,4.80
2019-04-18T00:54:26.340Z,4.60
2019-04-18T00:55:22.985Z,5.00
2019-04-18T00:56:22.979Z,5.00
2019-04-18T00:57:22.988Z,5.10
2019-04-18T00:58:22.966Z,4.90
2019-04-18T00:59:23.977Z,5.30
2019-04-18T01:00:22.953Z,4.90
2019-04-18T01:01:22.943Z,5.00
2019-04-18T01:02:22.938Z,5.00
2019-04-18T01:03:24.660Z,5.00
2019-04-18T01:04:26.662Z,5.30
2019-04-18T01:05:22.917Z,5.00
2019-04-18T01:06:22.913Z,4.90
2019-04-18T01:07:22.910Z,5.00
2019-04-18T01:08:22.905Z,5.30
2019-04-18T01:09:22.879Z,5.20
2019-04-18T01:10:22.889Z,5.20
2019-04-18T01:11:22.876Z,5.10
2019-04-18T01:12:22.867Z,4.90
2019-04-18T01:13:22.858Z,5.00
2019-04-18T01:14:22.854Z,5.10
2019-04-18T01:15:23.405Z,5.20
2019-04-18T01:16:25.344Z,5.00
2019-04-18T01:17:22.823Z,5.20
2019-04-18T01:18:22.824Z,5.00
2019-04-18T01:19:22.819Z,5.30
2019-04-18T01:20:24.269Z,5.10
2019-04-18T01:21:22.801Z,5.30
2019-04-18T01:22:22.795Z,5.30
2019-04-18T01:23:23.246Z,5.30
2019-04-18T01:24:27.469Z,5.40
2019-04-18T01:25:22.773Z,5.50
2019-04-18T01:26:22.765Z,5.60
2019-04-18T01:27:22.762Z,5.50
2019-04-18T01:28:22.746Z,5.50
2019-04-18T01:29:22.755Z,5.40
2019-04-18T01:30:22.727Z,5.40
2019-04-18T01:31:22.731Z,5.80
2019-04-18T01:32:22.724Z,5.50
2019-04-18T01:33:22.712Z,5.30
2019-04-18T01:34:22.708Z,5.30
2019-04-18T01:35:23.566Z,5.70
2019-04-18T01:36:24.965Z,5.50
2019-04-18T01:37:22.687Z,6.00
2019-04-18T01:38:22.671Z,5.90
2019-04-18T01:39:22.667Z,5.50
2019-04-18T01:40:22.663Z,5.40
2019-04-18T01:41:24.500Z,5.50
2019-04-18T01:42:22.782Z,5.70
2019-04-18T01:43:22.642Z,5.70
2019-04-18T01:44:22.635Z,5.60
2019-04-18T01:45:22.631Z,5.50
2019-04-18T01:46:23.357Z,5.40
2019-04-18T01:47:25.010Z,5.80
2019-04-18T01:48:22.594Z,5.70
2019-04-18T01:49:22.594Z,5.80
2019-04-18T01:50:22.598Z,5.60
2019-04-18T01:51:22.671Z,5.70
2019-04-18T01:52:26.616Z,6.00
2019-04-18T01:53:24.775Z,6.00
2019-04-18T01:54:22.558Z,5.80
2019-04-18T01:55:22.555Z,6.20
2019-04-18T01:56:23.989Z,5.60
2019-04-18T01:57:27.124Z,5.60
2019-04-18T01:58:22.531Z,5.70
2019-04-18T01:59:22.526Z,5.90
2019-04-18T02:00:22.520Z,6.30
2019-04-18T02:01:22.594Z,5.70
2019-04-18T02:02:23.768Z,5.80
2019-04-18T02:03:22.493Z,5.90
2019-04-18T02:04:22.486Z,5.90
2019-04-18T02:05:22.482Z,5.70
2019-04-18T02:06:22.472Z,5.90
2019-04-18T02:07:22.464Z,5.70
2019-04-18T02:08:22.453Z,5.80
2019-04-18T02:09:24.217Z,5.80
2019-04-18T02:10:22.440Z,5.90
2019-04-18T02:11:22.434Z,6.10
2019-04-18T02:12:22.422Z,6.00
2019-04-18T02:13:22.420Z,6.20
2019-04-18T02:14:25.607Z,6.00
2019-04-18T02:15:22.405Z,6.00
2019-04-18T02:16:22.394Z,5.70
2019-04-18T02:17:22.387Z,6.30
2019-04-18T02:18:22.506Z,6.20
2019-04-18T02:19:24.090Z,6.30
2019-04-18T02:20:22.365Z,6.50
2019-04-18T02:21:22.360Z,6.00
2019-04-18T02:22:22.356Z,6.10
2019-04-18T02:23:23.051Z,6.30
2019-04-18T02:24:22.413Z,6.40
2019-04-18T02:25:22.325Z,6.30
2019-04-18T02:26:22.312Z,6.20
2019-04-18T02:27:26.514Z,6.30
2019-04-18T02:28:22.303Z,5.90
2019-04-18T02:29:22.297Z,6.40
2019-04-18T02:30:22.718Z,6.20
2019-04-18T02:31:22.277Z,6.60
2019-04-18T02:32:22.274Z,6.30
2019-04-18T02:33:22.270Z,6.30
2019-04-18T02:34:22.267Z,6.50
2019-04-18T02:35:23.143Z,5.90
2019-04-18T02:36:22.250Z,6.50
2019-04-18T02:37:22.236Z,6.30
2019-04-18T02:38:22.224Z,6.50
2019-04-18T02:39:27.946Z,6.60
2019-04-18T02:40:22.221Z,6.80
2019-04-18T02:41:22.208Z,6.70
2019-04-18T02:42:22.231Z,7.00
2019-04-18T02:43:22.834Z,6.80
2019-04-18T02:44:26.792Z,6.90
2019-04-18T02:45:22.172Z,6.90
2019-04-18T02:46:22.165Z,6.70
2019-04-18T02:47:22.168Z,6.60
2019-04-18T02:48:25.504Z,6.70
2019-04-18T02:49:22.140Z,6.80
2019-04-18T02:50:22.138Z,6.70
2019-04-18T02:51:22.126Z,6.80
2019-04-18T02:52:24.726Z,6.70
2019-04-18T02:53:22.108Z,6.70
2019-04-18T02:54:22.101Z,6.60
2019-04-18T02:55:22.096Z,6.70
2019-04-18T02:56:24.190Z,6.60
2019-04-18T02:57:22.079Z,6.90
2019-04-18T02:58:22.072Z,6.80
2019-04-18T02:59:22.062Z,7.10
2019-04-18T03:00:22.301Z,6.90
2019-04-18T03:01:24.912Z,7.00
2019-04-18T03:02:22.041Z,6.40
2019-04-18T03:03:22.030Z,6.80
2019-04-18T03:04:22.027Z,7.40
2019-04-18T03:05:32.569Z,7.10
2019-04-18T03:06:22.007Z,7.20
2019-04-18T03:07:23.187Z,7.60
2019-04-18T03:08:24.876Z,7.40
2019-04-18T03:09:21.989Z,7.10
2019-04-18T03:10:21.984Z,7.20
2019-04-18T03:11:21.981Z,6.90
2019-04-18T03:12:24.825Z,7.10
2019-04-18T03:13:21.953Z,7.20
2019-04-18T03:14:21.943Z,7.00
2019-04-18T03:15:21.938Z,7.20
2019-04-18T03:16:24.414Z,6.90
2019-04-18T03:17:21.920Z,7.10
2019-04-18T03:18:21.914Z,7.30
2019-04-18T03:19:21.900Z,7.20
2019-04-18T03:20:21.894Z,7.20
2019-04-18T03:21:25.398Z,7.10
2019-04-18T03:22:21.884Z,7.10
2019-04-18T03:23:21.876Z,7.70
2019-04-18T03:24:21.865Z,7.20
2019-04-18T03:25:22.572Z,7.40
2019-04-18T03:26:23.860Z,6.80
2019-04-18T03:27:21.843Z,7.40
2019-04-18T03:28:21.833Z,7.20
2019-04-18T03:29:21.824Z,7.40
2019-04-18T03:30:28.898Z,7.20
2019-04-18T03:31:25.364Z,7.40
2019-04-18T03:32:21.803Z,7.10
2019-04-18T03:33:23.716Z,7.10
2019-04-18T03:34:21.783Z,7.10
2019-04-18T03:35:21.781Z,7.70
2019-04-18T03:36:21.770Z,7.40
2019-04-18T03:37:21.764Z,7.40
2019-04-18T03:38:21.753Z,7.10
2019-04-18T03:39:21.745Z,7.70
2019-04-18T03:40:24.779Z,7.30
2019-04-18T03:41:21.730Z,7.80
2019-04-18T03:42:21.721Z,7.20
2019-04-18T03:43:21.716Z,7.70
2019-04-18T03:44:21.707Z,7.70
2019-04-18T03:45:22.522Z,7.50
2019-04-18T03:46:25.473Z,7.60
2019-04-18T03:47:21.676Z,7.30
2019-04-18T03:48:21.668Z,7.80
2019-04-18T03:49:21.669Z,7.70
2019-04-18T03:50:21.654Z,7.70
2019-04-18T03:51:23.646Z,7.70
2019-04-18T03:52:24.762Z,7.60
2019-04-18T03:53:21.634Z,7.90
2019-04-18T03:54:21.623Z,7.50
2019-04-18T03:55:22.875Z,8.10
2019-04-18T03:56:21.609Z,7.60
2019-04-18T03:57:21.599Z,7.70
2019-04-18T03:58:21.600Z,7.90
2019-04-18T03:59:21.585Z,8.10
2019-04-18T04:00:25.298Z,7.70
2019-04-18T04:01:21.572Z,7.80
2019-04-18T04:02:21.558Z,7.20
2019-04-18T04:03:21.551Z,7.80
2019-04-18T04:04:22.212Z,7.40
2019-04-18T04:05:24.096Z,7.70
2019-04-18T04:06:21.522Z,7.60
2019-04-18T04:07:21.768Z,8.00
2019-04-18T04:08:21.506Z,7.80
2019-04-18T04:09:21.500Z,7.80
2019-04-18T04:10:21.492Z,7.60
2019-04-18T04:11:22.505Z,7.90
2019-04-18T04:12:23.939Z,8.10
2019-04-18T04:13:21.467Z,7.80
2019-04-18T04:14:21.461Z,7.60
2019-04-18T04:15:21.450Z,7.70
2019-04-18T04:16:23.199Z,7.80
2019-04-18T04:17:21.433Z,8.00
2019-04-18T04:18:21.426Z,7.60
2019-04-18T04:19:22.268Z,7.50
2019-04-18T04:20:23.054Z,7.90
2019-04-18T04:21:21.397Z,8.10
2019-04-18T04:22:21.385Z,7.70
2019-04-18T04:23:21.383Z,7.60
2019-04-18T04:24:21.375Z,7.80
2019-04-18T04:25:21.373Z,7.80
2019-04-18T04:26:21.359Z,8.00
2019-04-18T04:27:22.545Z,8.00
2019-04-18T04:28:23.934Z,7.90
2019-04-18T04:29:21.334Z,7.80
2019-04-18T04:30:21.328Z,7.70
2019-04-18T04:31:23.334Z,8.10
2019-04-18T04:32:21.307Z,7.70
2019-04-18T04:33:21.300Z,7.90
2019-04-18T04:34:21.292Z,8.40
2019-04-18T04:35:21.284Z,7.90
2019-04-18T04:36:26.035Z,7.50
2019-04-18T04:37:36.897Z,8.00
2019-04-18T04:38:21.260Z,7.70
2019-04-18T04:39:24.245Z,7.60
2019-04-18T04:40:21.242Z,7.80
2019-04-18T04:41:21.241Z,7.80
2019-04-18T04:42:21.224Z,8.00
2019-04-18T04:43:21.671Z,7.70
2019-04-18T04:44:26.516Z,7.60
2019-04-18T04:45:21.202Z,7.60
2019-04-18T04:46:21.195Z,7.60
2019-04-18T04:47:21.184Z,8.20
2019-04-18T04:48:22.955Z,7.60
2019-04-18T04:49:21.167Z,7.80
2019-04-18T04:50:21.158Z,8.00
2019-04-18T04:51:21.156Z,7.40
2019-04-18T04:52:22.871Z,7.40
2019-04-18T04:53:21.138Z,7.90
2019-04-18T04:54:21.128Z,8.10
2019-04-18T04:55:21.118Z,7.90
2019-04-18T04:56:21.109Z,8.00
2019-04-18T04:57:24.721Z,7.80
2019-04-18T04:58:21.093Z,7.70
2019-04-18T04:59:21.088Z,7.60
2019-04-18T05:00:24.350Z,7.80
2019-04-18T05:01:21.071Z,7.70
2019-04-18T05:02:21.056Z,8.10
2019-04-18T05:03:21.075Z,7.70
2019-04-18T05:04:22.345Z,7.70
2019-04-18T05:05:21.039Z,8.20
2019-04-18T05:06:35.653Z,7.50
2019-04-18T05:07:21.026Z,8.00
2019-04-18T05:08:21.017Z,8.40
2019-04-18T05:09:21.004Z,9.00
2019-04-18T05:10:21.001Z,9.30
2019-04-18T05:11:22.727Z,9.20
2019-04-18T05:12:23.871Z,8.70
2019-04-18T05:13:20.978Z,8.60
2019-04-18T05:14:20.975Z,8.80
2019-04-18T05:15:20.963Z,8.50
2019-04-18T05:16:20.966Z,9.00
2019-04-18T05:17:20.946Z,8.50
2019-04-18T05:18:20.955Z,8.70
2019-04-18T05:19:20.939Z,8.70
2019-04-18T05:20:20.929Z,8.40
2019-04-18T05:21:20.942Z,8.70
2019-04-18T05:22:20.915Z,9.10
2019-04-18T05:23:20.912Z,8.80
2019-04-18T05:24:25.151Z,8.90
2019-04-18T05:25:20.895Z,9.20
2019-04-18T05:26:20.889Z,8.80
2019-04-18T05:27:20.882Z,8.50
2019-04-18T05:28:20.877Z,9.00
2019-04-18T05:29:20.879Z,9.20
2019-04-18T05:30:20.868Z,9.00
2019-04-18T05:31:21.847Z,8.90
2019-04-18T05:32:20.853Z,8.60
2019-04-18T05:33:20.843Z,9.00
2019-04-18T05:34:20.841Z,9.30
2019-04-18T05:35:23.744Z,9.40
2019-04-18T05:36:22.691Z,9.10
2019-04-18T05:37:20.827Z,8.80
2019-04-18T05:38:22.624Z,9.20
2019-04-18T05:39:20.824Z,8.90
2019-04-18T05:40:23.529Z,8.80
2019-04-18T05:41:22.869Z,9.10
2019-04-18T05:42:22.825Z,8.90
2019-04-18T05:43:25.741Z,8.90
2019-04-18T05:44:20.787Z,8.70
2019-04-18T05:45:24.653Z,8.60
2019-04-18T05:46:22.109Z,8.40
2019-04-18T05:47:20.777Z,8.70
2019-04-18T05:48:20.773Z,9.30
2019-04-18T05:49:20.767Z,8.80
2019-04-18T05:50:20.761Z,8.40
2019-04-18T05:51:21.673Z,9.10
2019-04-18T05:52:22.971Z,8.60
2019-04-18T05:53:20.757Z,8.50
2019-04-18T05:54:20.747Z,9.10
2019-04-18T05:55:22.153Z,9.10
2019-04-18T05:56:20.740Z,9.20
2019-04-18T05:57:20.736Z,9.20
2019-04-18T05:58:20.736Z,9.30
2019-04-18T05:59:22.321Z,9.30
2019-04-18T06:00:24.339Z,9.10
2019-04-18T06:01:20.728Z,9.00
2019-04-18T06:02:23.651Z,8.80
2019-04-18T06:03:23.051Z,8.80
2019-04-18T06:04:20.724Z,8.90
2019-04-18T06:05:20.715Z,8.70
2019-04-18T06:06:20.743Z,8.80
2019-04-18T06:07:25.143Z,8.70
2019-04-18T06:08:20.710Z,8.90
2019-04-18T06:09:20.704Z,8.90
2019-04-18T06:10:20.698Z,8.90
2019-04-18T06:11:24.129Z,8.60
2019-04-18T06:12:20.698Z,9.10
2019-04-18T06:13:20.693Z,9.30
2019-04-18T06:14:20.695Z,9.10
2019-04-18T06:15:23.878Z,9.10
2019-04-18T06:16:20.695Z,9.10
2019-04-18T06:17:20.698Z,8.90
2019-04-18T06:18:20.685Z,8.60
2019-04-18T06:19:23.006Z,8.70
2019-04-18T06:20:25.429Z,9.50
2019-04-18T06:21:20.686Z,8.60
2019-04-18T06:22:20.691Z,9.10
2019-04-18T06:23:22.715Z,8.60
2019-04-18T06:24:20.679Z,9.40
2019-04-18T06:25:23.042Z,9.30
2019-04-18T06:26:20.677Z,8.70
2019-04-18T06:27:21.007Z,9.20
2019-04-18T06:28:20.669Z,8.70
2019-04-18T06:29:20.670Z,9.40
2019-04-18T06:30:20.670Z,8.90
2019-04-18T06:31:20.832Z,8.80
2019-04-18T06:32:20.669Z,9.10
2019-04-18T06:33:22.014Z,8.70
2019-04-18T06:34:20.668Z,9.50
2019-04-18T06:35:20.662Z,8.70
2019-04-18T06:36:23.388Z,8.40
2019-04-18T06:37:29.941Z,9.00
2019-04-18T06:38:20.758Z,8.80
2019-04-18T06:39:21.292Z,9.00
2019-04-18T06:40:20.949Z,9.00
2019-04-18T06:41:20.653Z,8.90
2019-04-18T06:42:20.708Z,8.40
2019-04-18T06:43:24.595Z,9.00
2019-04-18T06:44:20.651Z,9.20
2019-04-18T06:45:20.653Z,8.80
2019-04-18T06:46:23.382Z,8.90
2019-04-18T06:47:21.234Z,9.40
2019-04-18T06:48:20.654Z,8.80
2019-04-18T06:49:20.657Z,9.20
2019-04-18T06:50:23.379Z,9.00
2019-04-18T06:51:20.655Z,9.40
2019-04-18T06:52:20.650Z,9.10
2019-04-18T06:53:22.782Z,9.60
2019-04-18T06:54:20.648Z,9.00
2019-04-18T06:55:20.644Z,9.20
2019-04-18T06:56:20.643Z,8.80
2019-04-18T06:57:24.885Z,9.10
2019-04-18T06:58:33.774Z,8.80
2019-04-18T06:59:22.533Z,9.10
2019-04-18T07:00:20.845Z,9.00
2019-04-18T07:01:20.645Z,8.70
2019-04-18T07:02:20.643Z,9.20
2019-04-18T07:03:23.304Z,8.80
2019-04-18T07:04:20.650Z,9.20
2019-04-18T07:05:20.642Z,9.10
2019-04-18T07:06:31.841Z,9.30
2019-04-18T07:07:21.908Z,8.90
2019-04-18T07:08:25.463Z,9.60
2019-04-18T07:09:20.644Z,9.00
2019-04-18T07:10:21.137Z,8.80
2019-04-18T07:11:20.769Z,9.20
2019-04-18T07:12:20.670Z,9.40
2019-04-18T07:13:25.434Z,9.10
2019-04-18T07:14:21.343Z,9.10
2019-04-18T07:15:20.644Z,9.00
2019-04-18T07:16:20.646Z,9.10
2019-04-18T07:17:23.016Z,8.70
2019-04-18T07:18:20.828Z,9.10
2019-04-18T07:19:20.648Z,9.10
2019-04-18T07:20:20.964Z,9.00
2019-04-18T07:21:21.021Z,9.00
2019-04-18T07:22:20.657Z,8.80
2019-04-18T07:23:20.651Z,8.90
2019-04-18T07:24:20.651Z,9.60
2019-04-18T07:25:20.649Z,8.70
2019-04-18T07:26:20.649Z,8.80
2019-04-18T07:27:20.663Z,8.70
2019-04-18T07:28:24.779Z,9.10
2019-04-18T07:29:20.662Z,8.80
2019-04-18T07:30:20.656Z,9.30
2019-04-18T07:31:26.025Z,8.80
2019-04-18T07:32:20.659Z,8.80
2019-04-18T07:33:20.664Z,9.00
2019-04-18T07:34:21.077Z,9.30
2019-04-18T07:35:24.008Z,9.00
2019-04-18T07:36:20.665Z,9.10
2019-04-18T07:37:21.145Z,9.60
2019-04-18T07:38:22.132Z,9.30
2019-04-18T07:39:20.672Z,9.00
2019-04-18T07:40:20.672Z,9.00
2019-04-18T07:41:21.094Z,9.60
2019-04-18T07:42:20.946Z,9.40
2019-04-18T07:43:20.679Z,9.30
2019-04-18T07:44:21.104Z,9.80
2019-04-18T07:45:20.680Z,9.50
2019-04-18T07:46:20.881Z,9.50
2019-04-18T07:47:20.684Z,8.90
2019-04-18T07:48:21.383Z,9.80
2019-04-18T07:49:20.687Z,9.50
2019-04-18T07:50:21.398Z,9.70
2019-04-18T07:51:21.363Z,9.50
2019-04-18T07:52:20.696Z,9.40
2019-04-18T07:53:22.545Z,9.40
2019-04-18T07:54:20.693Z,9.20
2019-04-18T07:55:24.611Z,9.40
2019-04-18T07:56:20.700Z,9.30
2019-04-18T07:57:24.011Z,8.90
2019-04-18T07:58:23.924Z,9.00
2019-04-18T07:59:20.692Z,9.10
2019-04-18T08:00:20.694Z,9.40
2019-04-18T08:01:23.067Z,9.10
2019-04-18T08:02:20.690Z,9.00
2019-04-18T08:03:23.681Z,9.00
2019-04-18T08:04:20.692Z,9.30
2019-04-18T08:05:20.691Z,9.20
2019-04-18T08:06:23.957Z,9.30
2019-04-18T08:07:21.105Z,9.10
2019-04-18T08:08:20.688Z,8.80
2019-04-18T08:09:21.033Z,8.80
2019-04-18T08:10:26.063Z,9.70
2019-04-18T08:11:20.688Z,9.10
2019-04-18T08:12:20.686Z,9.40
2019-04-18T08:13:20.683Z,9.10
2019-04-18T08:14:20.680Z,9.10
2019-04-18T08:15:20.676Z,8.80
2019-04-18T08:16:20.677Z,8.80
2019-04-18T08:17:20.673Z,9.10
2019-04-18T08:18:26.506Z,9.60
2019-04-18T08:19:20.673Z,9.00
2019-04-18T08:20:20.879Z,9.40
2019-04-18T08:21:20.841Z,9.00
2019-04-18T08:22:20.665Z,9.80
2019-04-18T08:23:29.481Z,9.20
2019-04-18T08:24:20.663Z,8.90
2019-04-18T08:25:21.861Z,8.80
2019-04-18T08:26:21.373Z,9.00
2019-04-18T08:27:20.660Z,8.90
2019-04-18T08:28:20.895Z,9.20
2019-04-18T08:29:26.157Z,9.00
2019-04-18T08:30:25.759Z,9.00
2019-04-18T08:31:20.658Z,8.60
2019-04-18T08:32:20.651Z,8.90
2019-04-18T08:33:20.747Z,8.50
2019-04-18T08:34:20.846Z,9.10
2019-04-18T08:35:20.643Z,8.80
2019-04-18T08:36:20.645Z,8.70
2019-04-18T08:37:22.342Z,8.00
2019-04-18T08:38:24.125Z,8.80
2019-04-18T08:39:20.637Z,8.50
2019-04-18T08:40:20.942Z,8.90
2019-04-18T08:41:21.549Z,8.70
2019-04-18T08:42:20.639Z,8.80
2019-04-18T08:43:20.801Z,9.00
2019-04-18T08:44:23.577Z,9.40
2019-04-18T08:45:21.008Z,8.50
2019-04-18T08:46:20.632Z,8.60
2019-04-18T08:47:20.760Z,8.70
2019-04-18T08:48:22.963Z,8.80
2019-04-18T08:49:20.826Z,8.30
2019-04-18T08:50:20.668Z,9.00
2019-04-18T08:51:20.612Z,9.20
2019-04-18T08:52:20.763Z,8.80
2019-04-18T08:53:20.612Z,9.00
2019-04-18T08:54:20.629Z,9.30
2019-04-18T08:55:23.540Z,8.80
2019-04-18T08:56:20.614Z,8.40
2019-04-18T08:57:24.562Z,8.40
2019-04-18T08:58:20.603Z,8.20
2019-04-18T08:59:20.981Z,8.30
2019-04-18T09:00:20.662Z,8.90
2019-04-18T09:01:20.594Z,9.00
2019-04-18T09:02:20.597Z,8.90
2019-04-18T09:03:26.790Z,8.40
2019-04-18T09:04:20.595Z,8.70
2019-04-18T09:05:27.530Z,8.50
2019-04-18T09:06:30.634Z,8.50
2019-04-18T09:07:20.713Z,8.50
2019-04-18T09:08:21.734Z,8.40
2019-04-18T09:09:23.940Z,8.90
2019-04-18T09:10:20.769Z,8.40
2019-04-18T09:11:25.482Z,9.30
2019-04-18T09:12:20.700Z,8.70
2019-04-18T09:13:29.725Z,8.50
2019-04-18T09:14:21.160Z,8.50
2019-04-18T09:15:21.105Z,8.90
2019-04-18T09:16:20.832Z,8.50
2019-04-18T09:17:34.595Z,9.00
2019-04-18T09:19:16.844Z,8.70
2019-04-18T09:20:14.709Z,8.70
2019-04-18T09:22:06.468Z,9.10
2019-04-18T09:23:08.199Z,8.90
2019-04-18T09:25:00.103Z,8.80
2019-04-18T09:25:59.257Z,8.80
2019-04-18T09:27:53.628Z,8.30
2019-04-18T09:28:52.763Z,7.70
2019-04-18T09:30:44.958Z,7.60
2019-04-18T09:31:46.125Z,7.80
2019-04-18T09:32:44.937Z,7.10
2019-04-18T09:33:44.939Z,7.10
2019-04-18T09:34:44.935Z,6.90
2019-04-18T09:35:46.113Z,7.10
2019-04-18T09:36:44.931Z,7.10
2019-04-18T09:37:44.931Z,7.00
2019-04-18T09:38:44.931Z,7.20
2019-04-18T09:39:46.310Z,6.90
2019-04-18T09:40:44.930Z,6.90
2019-04-18T09:41:44.927Z,6.20
2019-04-18T09:42:44.924Z,6.60
2019-04-18T09:43:44.923Z,6.50
2019-04-18T09:44:44.926Z,7.00
2019-04-18T09:45:44.921Z,6.90
2019-04-18T09:46:44.919Z,6.50
2019-04-18T09:47:44.919Z,6.40
2019-04-18T09:48:44.917Z,6.20
2019-04-18T09:49:44.915Z,6.20
2019-04-18T09:50:48.666Z,6.40
2019-04-18T09:51:44.916Z,5.90
2019-04-18T09:52:44.915Z,5.80
2019-04-18T09:53:44.912Z,5.70
2019-04-18T09:54:44.912Z,5.80
2019-04-18T09:55:44.910Z,6.20
2019-04-18T09:56:44.910Z,6.30
2019-04-18T09:57:44.908Z,6.10
2019-04-18T09:58:44.908Z,6.20
2019-04-18T09:59:44.914Z,6.20
2019-04-18T10:00:45.895Z,6.00
2019-04-18T10:01:44.962Z,5.50
2019-04-18T10:02:44.905Z,4.90
2019-04-18T10:03:44.903Z,5.10
2019-04-18T10:04:50.012Z,4.60
2019-04-18T10:05:44.905Z,5.30
2019-04-18T10:06:44.899Z,5.10
2019-04-18T10:07:44.902Z,5.20
2019-04-18T10:08:44.900Z,5.50
2019-04-18T10:09:44.899Z,5.70
2019-04-18T10:10:44.896Z,6.00
2019-04-18T10:11:47.393Z,5.80
2019-04-18T10:12:44.898Z,6.20
2019-04-18T10:13:44.895Z,5.40
2019-04-18T10:14:44.896Z,5.40
2019-04-18T10:15:57.653Z,5.70
2019-04-18T10:16:44.892Z,5.50
2019-04-18T10:17:46.428Z,5.30
2019-04-18T10:18:44.889Z,5.50
2019-04-18T10:19:44.891Z,5.90
2019-04-18T10:20:44.896Z,5.60
2019-04-18T10:21:44.890Z,6.10
2019-04-18T10:22:44.885Z,6.00
2019-04-18T10:23:44.887Z,5.90
2019-04-18T10:24:44.884Z,5.50
2019-04-18T10:25:44.884Z,5.70
2019-04-18T10:26:44.883Z,5.70
2019-04-18T10:27:44.885Z,5.50
2019-04-18T10:28:44.882Z,5.50
2019-04-18T10:29:44.881Z,5.60
2019-04-18T10:30:44.880Z,5.50
2019-04-18T10:31:44.882Z,5.80
2019-04-18T10:32:44.891Z,5.90
2019-04-18T10:33:44.890Z,5.70
2019-04-18T10:34:44.897Z,5.50
2019-04-18T10:35:44.880Z,6.00
2019-04-18T10:36:44.878Z,5.80
2019-04-18T10:37:44.874Z,5.30
2019-04-18T10:38:47.451Z,5.40
2019-04-18T10:39:44.875Z,5.20
2019-04-18T10:40:44.878Z,5.20
2019-04-18T10:41:44.872Z,5.30
2019-04-18T10:42:44.876Z,5.50
2019-04-18T10:43:44.869Z,5.00
2019-04-18T10:44:44.872Z,5.10
2019-04-18T10:45:44.869Z,5.30
2019-04-18T10:46:45.114Z,5.00
2019-04-18T10:47:44.869Z,4.80
2019-04-18T10:48:44.867Z,4.60
2019-04-18T10:49:44.867Z,4.20
2019-04-18T10:50:44.868Z,4.40
2019-04-18T10:51:44.866Z,4.60
2019-04-18T10:52:44.864Z,4.10
2019-04-18T10:53:44.863Z,4.10
2019-04-18T10:54:46.164Z,4.40
2019-04-18T10:55:44.864Z,4.40
2019-04-18T10:56:44.865Z,4.40
2019-04-18T10:57:44.874Z,4.20
2019-04-18T10:58:44.865Z,3.70
2019-04-18T10:59:44.861Z,4.00
2019-04-18T11:00:44.872Z,4.20
2019-04-18T11:01:44.859Z,4.10
2019-04-18T11:02:44.859Z,3.50
2019-04-18T11:03:44.860Z,4.10
2019-04-18T11:04:44.859Z,3.70
2019-04-18T11:05:44.868Z,3.90
2019-04-18T11:06:44.859Z,3.90
2019-04-18T11:07:44.857Z,4.20
2019-04-18T11:08:44.857Z,3.80
2019-04-18T11:09:44.856Z,3.80
2019-04-18T11:10:44.858Z,4.20
2019-04-18T11:11:44.855Z,4.10
2019-04-18T11:12:44.857Z,3.90
2019-04-18T11:13:44.855Z,4.10
2019-04-18T11:14:44.860Z,3.90
2019-04-18T11:15:44.855Z,3.70
2019-04-18T11:16:44.858Z,4.00
2019-04-18T11:17:44.858Z,4.10
2019-04-18T11:18:44.853Z,3.90
2019-04-18T11:19:44.863Z,4.00
2019-04-18T11:20:44.854Z,4.10
2019-04-18T11:21:44.850Z,4.20
2019-04-18T11:22:44.851Z,4.40
2019-04-18T11:23:44.852Z,4.00
2019-04-18T11:24:44.850Z,4.10
2019-04-18T11:25:44.850Z,4.10
2019-04-18T11:26:44.848Z,3.60
2019-04-18T11:27:44.850Z,4.10
2019-04-18T11:28:44.852Z,3.90
2019-04-18T11:29:44.850Z,4.10
2019-04-18T11:30:58.231Z,3.70
2019-04-18T11:31:44.849Z,3.80
2019-04-18T11:32:44.847Z,3.70
2019-04-18T11:33:44.847Z,3.60
2019-04-18T11:34:44.850Z,3.60
2019-04-18T11:35:44.852Z,3.90
2019-04-18T11:36:44.858Z,3.70
2019-04-18T11:37:48.105Z,3.70
2019-04-18T11:38:47.658Z,3.60
2019-04-18T11:39:44.844Z,3.40
2019-04-18T11:40:44.848Z,3.70
2019-04-18T11:41:44.845Z,3.60
2019-04-18T11:42:44.844Z,3.50
2019-04-18T11:43:47.926Z,3.50
2019-04-18T11:44:44.846Z,3.80
2019-04-18T11:45:44.848Z,3.50
2019-04-18T11:46:44.847Z,3.80
2019-04-18T11:47:44.849Z,3.60
2019-04-18T11:48:44.848Z,3.80
2019-04-18T11:49:44.844Z,3.90
2019-04-18T11:50:44.845Z,4.20
2019-04-18T11:51:44.845Z,4.00
2019-04-18T11:52:44.847Z,3.90
2019-04-18T11:53:44.848Z,4.30
2019-04-18T11:54:44.845Z,4.20
2019-04-18T11:55:44.844Z,4.20
2019-04-18T11:56:44.847Z,4.20
2019-04-18T11:57:48.245Z,4.40
2019-04-18T11:58:44.842Z,4.10
2019-04-18T11:59:44.845Z,4.10
2019-04-18T12:00:44.848Z,4.00
2019-04-18T12:01:44.842Z,3.70
2019-04-18T12:02:44.843Z,3.60
2019-04-18T12:03:44.843Z,3.70
2019-04-18T12:04:44.842Z,3.80
2019-04-18T12:05:44.842Z,3.90
2019-04-18T12:06:44.840Z,3.80
2019-04-18T12:07:44.842Z,3.70
2019-04-18T12:08:44.843Z,4.40
2019-04-18T12:09:44.841Z,4.10
2019-04-18T12:10:44.840Z,4.10
2019-04-18T12:11:44.841Z,3.90
2019-04-18T12:12:47.787Z,4.10
2019-04-18T12:13:44.840Z,3.90
2019-04-18T12:14:44.839Z,4.00
2019-04-18T12:15:44.845Z,4.30
2019-04-18T12:16:44.849Z,4.20
2019-04-18T12:17:44.840Z,4.30
2019-04-18T12:18:44.837Z,3.80
2019-04-18T12:19:44.838Z,4.00
2019-04-18T12:20:44.839Z,4.00
2019-04-18T12:21:44.836Z,3.90
2019-04-18T12:22:44.837Z,4.10
2019-04-18T12:23:44.838Z,4.00
2019-04-18T12:24:44.837Z,4.30
2019-04-18T12:25:44.836Z,4.10
2019-04-18T12:26:44.843Z,4.40
2019-04-18T12:27:44.837Z,4.20
2019-04-18T12:28:44.837Z,4.40
2019-04-18T12:29:44.845Z,4.60
2019-04-18T12:30:44.835Z,4.30
2019-04-18T12:31:44.836Z,4.00
2019-04-18T12:32:44.836Z,4.10
2019-04-18T12:33:44.834Z,4.20
2019-04-18T12:34:44.836Z,4.30
2019-04-18T12:35:44.834Z,4.40
2019-04-18T12:36:44.835Z,4.20
2019-04-18T12:37:44.833Z,4.40
2019-04-18T12:38:44.838Z,4.30
2019-04-18T12:39:44.839Z,4.20
2019-04-18T12:40:44.836Z,4.40
2019-04-18T12:41:44.903Z,4.40
2019-04-18T12:42:44.836Z,4.60
2019-04-18T12:43:44.837Z,4.40
2019-04-18T12:44:44.836Z,4.50
2019-04-18T12:45:44.836Z,4.40
2019-04-18T12:46:44.834Z,4.50
2019-04-18T12:47:44.843Z,4.60
2019-04-18T12:48:44.834Z,4.60
2019-04-18T12:49:44.839Z,4.60
2019-04-18T12:50:44.838Z,4.70
2019-04-18T12:51:44.837Z,4.60
2019-04-18T12:52:44.835Z,4.70
2019-04-18T12:53:44.835Z,4.80
2019-04-18T12:54:44.833Z,4.70
2019-04-18T12:55:44.834Z,4.60
2019-04-18T12:56:44.831Z,4.40
2019-04-18T12:57:44.831Z,4.60
2019-04-18T12:58:44.832Z,4.50
2019-04-18T12:59:44.832Z,4.20
2019-04-18T13:00:44.838Z,4.00
2019-04-18T13:01:47.355Z,4.00
2019-04-18T13:02:44.834Z,4.00
2019-04-18T13:03:45.030Z,4.00
2019-04-18T13:04:44.834Z,4.00
2019-04-18T13:05:44.830Z,3.70
2019-04-18T13:06:44.831Z,3.90
2019-04-18T13:07:44.831Z,3.90
2019-04-18T13:08:44.830Z,3.90
2019-04-18T13:09:44.845Z,3.80
2019-04-18T13:10:44.896Z,4.20
2019-04-18T13:11:44.833Z,4.00
2019-04-18T13:12:44.834Z,3.90
2019-04-18T13:13:44.830Z,4.00
2019-04-18T13:14:49.142Z,3.70
2019-04-18T13:15:44.830Z,3.80
2019-04-18T13:16:44.831Z,4.10
2019-04-18T13:17:44.829Z,4.20
2019-04-18T13:18:44.830Z,4.20
2019-04-18T13:19:44.834Z,4.10
2019-04-18T13:20:44.833Z,3.80
2019-04-18T13:21:44.835Z,4.00
2019-04-18T13:22:44.846Z,3.60